Logo AVAMET
Benvolgut visitant, si us plau, ingressa Recuperar contrasenya

Alcalalí centre

Dades diàries. Acumulats / Últims 30 dies disponibles

Data Temperatura (°C) Humitat rel. (%) Pressió rel. (hPa) Vent (km/h) Precipitació
Mínima Mitjana Màxima Amplitud
tèrmica
Mínima Mitjana Màxima Mínima Mitjana Màxima Predom. Mitjana Ràfega
màxima
Total
(mm)
Índex-n
Mínima Mitjana Màxima Mínima Mitjana Màxima n
0 a 1
P0 max
mm 5'
Dades mensuals acumulades fins l'últim dia disponible
09/2019 13,9 18,4 21,4 22,1 21,4 25,7 32,8 18,9 34 80 96 1.009 1.018 1.026   6,1 77,2 264,4
Dades anuals acumulades fins l'últim dia disponible
2019 1,1 13,1 26,6 18,0 10,3 23,0 38,4 37,3 15 64 97 999 1.018 1.036   6,6 86,9 821,2
Últims 30 dies disponibles
18-09-2019 19,2     23,4     29,2 10,0 42 74 96 1.014 1.015 1.017 WNW 4,2 22,5 0,0
17-09-2019 17,7     22,2     27,9 10,2 68 86 95 1.015 1.017 1.019 WNW 2,4 25,7 0,0
16-09-2019 20,7     22,8     25,6 4,9 78 90 96 1.017 1.018 1.020 NNE 5,1 20,9 1,6
15-09-2019 21,4     22,4     23,9 2,5 89 93 96 1.019 1.020 1.022 WNW 6,4 27,4 0,4
14-09-2019 18,3     20,6     22,0 3,7 83 89 95 1.021 1.023 1.025 WNW 8,5 37,0 7,2 0,42 1,70
13-09-2019 17,9     20,6     23,4 5,5 78 90 95 1.021 1.024 1.026 WNW 6,3 32,2 9,2 0,31 0,80
12-09-2019 17,3     20,2     22,1 4,8 80 87 96 1.020 1.025 1.026 NE 12,2 77,2 139,8 0,63 37,50
11-09-2019 13,9     17,7     21,4 7,5 56 77 96 1.012 1.017 1.022 WNW 11,6 64,4 69,8 0,53 7,90
10-09-2019 13,9     21,9     26,3 12,4 34 54 91 1.009 1.010 1.014 WNW 6,6 37,0 12,0 0,72 7,30
09-09-2019 16,5     22,9     27,2 10,7 52 71 88 1.012 1.015 1.018 SSW 11,3 54,7 0,0
08-09-2019 17,1     21,1     24,9 7,8 62 78 92 1.016 1.018 1.020 E 5,3 25,7 0,0
07-09-2019 18,1     20,9     24,6 6,5 68 84 93 1.018 1.020 1.020 SE 3,7 27,4 13,6 0,45 3,80
06-09-2019 19,2     21,4     24,3 5,1 72 83 91 1.018 1.019 1.020 WNW 4,7 32,2 1,8
05-09-2019 19,4     22,2     25,7 6,3 65 82 93 1.016 1.018 1.019 NNE 3,2 25,7 0,0
04-09-2019 21,2     24,4     29,3 8,1 58 79 93 1.016 1.018 1.021 SSW 4,8 30,6 0,0
03-09-2019 18,9     23,2     26,8 7,9 69 81 92 1.019 1.021 1.022 WNW 4,5 25,7 0,0
02-09-2019 20,7     22,7     25,0 4,3 75 84 93 1.014 1.018 1.021 WNW 4,0 30,6 9,0 0,35 0,60
01-09-2019 19,2     26,3     32,8 13,6 34 60 84 1.012 1.014 1.015 SSW 4,8 30,6 0,0
31-08-2019 19,1     25,3     31,6 12,5 40 62 79 1.014 1.016 1.019 S 4,1 25,7 0,0
30-08-2019 19,1     24,8     31,0 11,9 45 67 86 1.018 1.019 1.021 E 3,4 29,0 0,0
29-08-2019 18,5     24,4     30,1 11,6 44 66 90 1.019 1.019 1.020 WNW 5,5 29,0 0,0
28-08-2019 16,7     22,9     28,6 11,9 48 70 91 1.017 1.018 1.019 WNW 3,7 24,1 0,0
27-08-2019 17,6     21,9     26,0 8,4 69 79 89 1.013 1.015 1.017 WNW 6,4 56,3 47,0
26-08-2019 19,2     23,3     26,8 7,6 65 78 87 1.014 1.016 1.018 ENE 4,5 25,7 0,0
25-08-2019 19,4     24,0     29,2 9,8 47 70 85 1.017 1.018 1.019 WNW 6,1 25,7 0,0
24-08-2019 19,8     23,9     28,4 8,6 57 69 84 1.017 1.019 1.020 WNW 6,1 25,7 0,0
23-08-2019 18,8     23,8     29,2 10,4 40 63 86 1.018 1.020 1.021 WNW 5,1 22,5 0,0
22-08-2019 18,9     23,4     28,7 9,8 40 70 86 1.019 1.020 1.021 WNW 5,0 22,5 0,0
21-08-2019 21,3     23,5     26,2 4,9 50 77 96 1.019 1.020 1.021 NE 5,6 25,7 38,8
20-08-2019 22,0     24,6     28,9 6,9 63 81 93 1.015 1.017 1.020 WNW 7,7 41,8 14,6
Últims 13 mesos disponibles
09/2019 13,9 18,4 21,4 22,1 21,4 25,7 32,8 18,9 54 80 93 1.010 1.018 1.025 WNW 6,1 77,2 264,4
08/2019 16,7 20,4 25,8 25,6 26,0 30,7 36,9 20,2 41 68 81 1.010 1.016 1.020 WNW 6,3 56,3 100,6
07/2019 18,4 20,7 26,6 26,2 27,7 31,5 38,4 20,0 34 60 78 1.006 1.014 1.021 WNW 7,0 86,9 2,4
06/2019 11,3 16,1 21,2 21,9 20,2 27,1 35,3 24,0 39 60 81 1.009 1.015 1.022 WNW 7,2 49,9 2,4
05/2019 8,4 12,7 20,3 17,8 18,6 22,7 28,8 20,4 44 66 81 1.006 1.016 1.025 WNW 6,4 64,4 28,6
04/2019 7,2 10,7 14,4 14,5 13,1 18,5 27,3 20,1 36 69 95 1.000 1.013 1.025 WNW 7,7 64,4 340,6
03/2019 5,2 8,2 13,0 13,6 12,3 18,6 26,8 21,6 33 59 91 1.010 1.023 1.030 WNW 5,8 61,2 76,2
02/2019 2,6 6,1 10,6 11,3 11,6 16,7 22,4 19,8 38 65 83 1.021 1.027 1.034 WNW 6,2 74,0 0,0
01/2019 1,1 6,0 13,3 10,4 10,3 15,5 18,9 17,8 37 60 80 1.004 1.019 1.031 WNW 6,2 78,9 6,0
12/2018 3,6 7,5 10,7 12,4 11,6 18,1 23,8 20,2 51 69 91 1.009 1.025 1.031 WNW 3,7 66,0 34,2
11/2018 5,0 10,4 15,9 14,1 13,1 17,9 23,1 18,1 47 72 93 1.001 1.015 1.023 WNW 5,1 69,2 199,2
10/2018 8,0 13,8 18,8 18,1 13,4 22,5 27,5 19,5 42 71 88 1.000 1.015 1.026 4,5 57,9 130,4
09/2018 12,7 19,2 22,3 23,4 23,3 27,4 31,7 19,0 58 76 88 1.012 1.020 1.028 4,9 43,5 73,0
Tots els anys disponibles
2018 1,3 13,3 25,0 17,8 6,9 22,3 35,9 34,6 41 70 93 1.000 1.018 1.031 WNW 6,3 88,5 756,0
2017 0,2 12,7 26,0 17,5 7,2 22,4 36,6 36,4 6,3 96,6 784,6
Temperatura (°C)
Humitat relativa (%)
Velocitat del vent i ràfega màxima (km/h)
Direcció del vent (°)
Pressió (hPa)
Precipitació (mm)
Nota sobre les dades: s'avisa a l'usuari de la provisionalitat i no oficialitat d'aquestes dades
Logo AVAMET blanc
Web allotjada a Sollutia
Llicència de Creative CommonsLa web d'AVAMET i els seus continguts estan subjectes a una llicència de
Reconeixement - No Comercial - Compartir igual
Últimes estacions: Xàbia - Alt de la Granadella (Soci), Villena - Sierra de Salinas (Soci), Sueca - Centre (Inforatge), Xàbia - La Plana (Soci), - - -